sensor_id;sensor_type;location;lat;lon;timestamp;P1;durP1;ratioP1;P2;durP2;ratioP2
19645;SDS011;9971;52.446;13.452;2023-09-19T00:01:29;4.20;;;1.67;;
19645;SDS011;9971;52.446;13.452;2023-09-19T00:07:06;2.65;;;1.57;;
19645;SDS011;9971;52.446;13.452;2023-09-19T00:28:27;1.90;;;1.63;;
19645;SDS011;9971;52.446;13.452;2023-09-19T00:49:58;2.83;;;1.77;;
19645;SDS011;9971;52.446;13.452;2023-09-19T01:11:40;1.63;;;1.40;;
19645;SDS011;9971;52.446;13.452;2023-09-19T01:59:50;2.02;;;1.50;;
19645;SDS011;9971;52.446;13.452;2023-09-19T02:05:23;2.13;;;1.53;;
19645;SDS011;9971;52.446;13.452;2023-09-19T02:26:31;2.70;;;1.60;;
19645;SDS011;9971;52.446;13.452;2023-09-19T02:32:00;2.10;;;1.60;;
19645;SDS011;9971;52.446;13.452;2023-09-19T02:37:09;2.07;;;1.70;;
19645;SDS011;9971;52.446;13.452;2023-09-19T02:42:21;3.73;;;1.70;;
19645;SDS011;9971;52.446;13.452;2023-09-19T02:52:47;2.53;;;1.60;;
19645;SDS011;9971;52.446;13.452;2023-09-19T03:19:30;2.22;;;1.70;;
19645;SDS011;9971;52.446;13.452;2023-09-19T03:40:45;1.33;;;1.23;;
19645;SDS011;9971;52.446;13.452;2023-09-19T03:46:00;3.57;;;1.50;;
19645;SDS011;9971;52.446;13.452;2023-09-19T03:51:16;1.65;;;1.30;;
19645;SDS011;9971;52.446;13.452;2023-09-19T05:27:46;1.67;;;1.25;;
19645;SDS011;9971;52.446;13.452;2023-09-19T05:32:49;1.67;;;1.40;;
19645;SDS011;9971;52.446;13.452;2023-09-19T05:37:52;1.72;;;1.25;;
19645;SDS011;9971;52.446;13.452;2023-09-19T05:42:54;0.80;;;0.70;;
19645;SDS011;9971;52.446;13.452;2023-09-19T05:48:05;0.50;;;0.50;;
19645;SDS011;9971;52.446;13.452;2023-09-19T05:52:59;0.83;;;0.83;;
19645;SDS011;9971;52.446;13.452;2023-09-19T05:58:02;0.62;;;0.50;;
19645;SDS011;9971;52.446;13.452;2023-09-19T06:03:04;0.55;;;0.45;;
19645;SDS011;9971;52.446;13.452;2023-09-19T06:08:07;1.25;;;0.80;;
19645;SDS011;9971;52.446;13.452;2023-09-19T06:13:10;0.80;;;0.80;;
19645;SDS011;9971;52.446;13.452;2023-09-19T06:18:12;1.67;;;1.07;;
19645;SDS011;9971;52.446;13.452;2023-09-19T06:23:15;1.57;;;1.30;;
19645;SDS011;9971;52.446;13.452;2023-09-19T06:28:17;0.78;;;0.78;;
19645;SDS011;9971;52.446;13.452;2023-09-19T06:33:20;1.07;;;0.82;;
19645;SDS011;9971;52.446;13.452;2023-09-19T06:38:23;1.60;;;1.00;;
19645;SDS011;9971;52.446;13.452;2023-09-19T06:43:26;0.85;;;0.85;;
19645;SDS011;9971;52.446;13.452;2023-09-19T06:48:28;1.90;;;1.10;;
19645;SDS011;9971;52.446;13.452;2023-09-19T06:53:31;1.90;;;0.82;;
19645;SDS011;9971;52.446;13.452;2023-09-19T06:58:34;3.03;;;1.37;;
19645;SDS011;9971;52.446;13.452;2023-09-19T07:03:38;1.60;;;1.10;;
19645;SDS011;9971;52.446;13.452;2023-09-19T07:08:40;1.10;;;1.00;;
19645;SDS011;9971;52.446;13.452;2023-09-19T07:13:42;2.98;;;1.37;;
19645;SDS011;9971;52.446;13.452;2023-09-19T07:18:45;2.55;;;1.57;;
19645;SDS011;9971;52.446;13.452;2023-09-19T07:23:47;1.85;;;1.40;;
19645;SDS011;9971;52.446;13.452;2023-09-19T07:28:49;1.97;;;1.40;;
19645;SDS011;9971;52.446;13.452;2023-09-19T07:33:52;3.12;;;1.77;;
19645;SDS011;9971;52.446;13.452;2023-09-19T07:38:54;3.33;;;1.67;;
19645;SDS011;9971;52.446;13.452;2023-09-19T07:43:56;1.57;;;1.22;;
19645;SDS011;9971;52.446;13.452;2023-09-19T07:48:59;2.52;;;1.40;;
19645;SDS011;9971;52.446;13.452;2023-09-19T07:54:01;1.87;;;1.75;;
19645;SDS011;9971;52.446;13.452;2023-09-19T07:59:04;1.57;;;1.20;;
19645;SDS011;9971;52.446;13.452;2023-09-19T08:04:07;2.98;;;1.60;;
19645;SDS011;9971;52.446;13.452;2023-09-19T08:09:09;1.92;;;1.50;;
19645;SDS011;9971;52.446;13.452;2023-09-19T08:14:12;2.90;;;1.20;;
19645;SDS011;9971;52.446;13.452;2023-09-19T08:19:14;4.37;;;1.72;;
19645;SDS011;9971;52.446;13.452;2023-09-19T08:24:16;1.67;;;0.85;;
19645;SDS011;9971;52.446;13.452;2023-09-19T08:29:19;1.77;;;1.40;;
19645;SDS011;9971;52.446;13.452;2023-09-19T08:34:22;3.85;;;1.40;;
19645;SDS011;9971;52.446;13.452;2023-09-19T08:39:24;4.55;;;1.82;;
19645;SDS011;9971;52.446;13.452;2023-09-19T08:44:26;2.97;;;1.60;;
19645;SDS011;9971;52.446;13.452;2023-09-19T08:49:29;1.60;;;1.50;;
19645;SDS011;9971;52.446;13.452;2023-09-19T08:54:31;3.43;;;1.73;;
19645;SDS011;9971;52.446;13.452;2023-09-19T08:59:33;2.73;;;1.57;;
19645;SDS011;9971;52.446;13.452;2023-09-19T09:04:35;1.37;;;1.13;;
19645;SDS011;9971;52.446;13.452;2023-09-19T09:09:38;3.08;;;1.65;;
19645;SDS011;9971;52.446;13.452;2023-09-19T09:14:40;4.03;;;1.73;;
19645;SDS011;9971;52.446;13.452;2023-09-19T09:19:41;4.40;;;2.00;;
19645;SDS011;9971;52.446;13.452;2023-09-19T09:29:54;2.20;;;1.60;;
19645;SDS011;9971;52.446;13.452;2023-09-19T09:34:57;3.53;;;1.77;;
19645;SDS011;9971;52.446;13.452;2023-09-19T09:40:00;2.53;;;1.63;;
19645;SDS011;9971;52.446;13.452;2023-09-19T09:45:17;1.83;;;1.43;;
19645;SDS011;9971;52.446;13.452;2023-09-19T09:50:28;3.00;;;1.63;;
19645;SDS011;9971;52.446;13.452;2023-09-19T09:55:29;3.47;;;2.00;;
19645;SDS011;9971;52.446;13.452;2023-09-19T10:00:32;2.58;;;1.77;;
19645;SDS011;9971;52.446;13.452;2023-09-19T10:05:35;3.43;;;1.80;;
19645;SDS011;9971;52.446;13.452;2023-09-19T10:10:37;2.20;;;1.70;;
19645;SDS011;9971;52.446;13.452;2023-09-19T10:15:39;5.35;;;2.27;;
19645;SDS011;9971;52.446;13.452;2023-09-19T10:20:41;1.77;;;1.47;;
19645;SDS011;9971;52.446;13.452;2023-09-19T10:25:43;2.37;;;1.77;;
19645;SDS011;9971;52.446;13.452;2023-09-19T10:30:46;3.27;;;2.07;;
19645;SDS011;9971;52.446;13.452;2023-09-19T10:35:48;2.25;;;1.67;;
19645;SDS011;9971;52.446;13.452;2023-09-19T10:40:51;3.63;;;1.90;;
19645;SDS011;9971;52.446;13.452;2023-09-19T10:45:52;2.90;;;1.87;;
19645;SDS011;9971;52.446;13.452;2023-09-19T10:50:58;2.27;;;1.83;;
19645;SDS011;9971;52.446;13.452;2023-09-19T10:56:00;3.40;;;2.25;;
19645;SDS011;9971;52.446;13.452;2023-09-19T11:01:02;5.17;;;1.80;;
19645;SDS011;9971;52.446;13.452;2023-09-19T11:06:08;4.45;;;1.80;;
19645;SDS011;9971;52.446;13.452;2023-09-19T11:22:00;4.13;;;2.17;;
19645;SDS011;9971;52.446;13.452;2023-09-19T11:27:10;3.92;;;1.92;;
19645;SDS011;9971;52.446;13.452;2023-09-19T11:32:13;3.07;;;1.87;;
19645;SDS011;9971;52.446;13.452;2023-09-19T11:42:47;3.57;;;1.73;;
19645;SDS011;9971;52.446;13.452;2023-09-19T11:47:51;3.13;;;1.87;;
19645;SDS011;9971;52.446;13.452;2023-09-19T11:52:54;2.53;;;1.60;;
19645;SDS011;9971;52.446;13.452;2023-09-19T11:57:58;2.27;;;1.63;;
19645;SDS011;9971;52.446;13.452;2023-09-19T12:03:02;3.47;;;1.87;;
19645;SDS011;9971;52.446;13.452;2023-09-19T12:08:03;3.50;;;1.97;;
19645;SDS011;9971;52.446;13.452;2023-09-19T12:13:04;4.72;;;1.60;;
19645;SDS011;9971;52.446;13.452;2023-09-19T12:18:07;3.20;;;1.70;;
19645;SDS011;9971;52.446;13.452;2023-09-19T12:23:13;3.23;;;1.60;;
19645;SDS011;9971;52.446;13.452;2023-09-19T12:28:16;3.12;;;1.42;;
19645;SDS011;9971;52.446;13.452;2023-09-19T12:33:18;2.42;;;1.32;;
19645;SDS011;9971;52.446;13.452;2023-09-19T12:38:23;2.57;;;1.77;;
19645;SDS011;9971;52.446;13.452;2023-09-19T12:43:24;3.40;;;1.83;;
19645;SDS011;9971;52.446;13.452;2023-09-19T12:48:26;3.72;;;1.55;;
19645;SDS011;9971;52.446;13.452;2023-09-19T12:53:31;6.80;;;1.50;;
19645;SDS011;9971;52.446;13.452;2023-09-19T12:58:34;1.40;;;1.25;;
19645;SDS011;9971;52.446;13.452;2023-09-19T13:03:37;2.13;;;1.33;;
19645;SDS011;9971;52.446;13.452;2023-09-19T13:08:39;4.10;;;1.30;;
19645;SDS011;9971;52.446;13.452;2023-09-19T13:13:43;1.83;;;1.23;;
19645;SDS011;9971;52.446;13.452;2023-09-19T13:18:44;2.10;;;1.27;;
19645;SDS011;9971;52.446;13.452;2023-09-19T13:23:46;2.55;;;1.42;;
19645;SDS011;9971;52.446;13.452;2023-09-19T13:28:49;2.90;;;1.30;;
19645;SDS011;9971;52.446;13.452;2023-09-19T13:33:51;2.23;;;1.30;;
19645;SDS011;9971;52.446;13.452;2023-09-19T13:38:53;1.85;;;1.22;;
19645;SDS011;9971;52.446;13.452;2023-09-19T13:43:56;2.08;;;1.30;;
19645;SDS011;9971;52.446;13.452;2023-09-19T13:48:59;1.92;;;1.00;;
19645;SDS011;9971;52.446;13.452;2023-09-19T13:54:00;2.35;;;1.40;;
19645;SDS011;9971;52.446;13.452;2023-09-19T13:59:04;1.75;;;1.35;;
19645;SDS011;9971;52.446;13.452;2023-09-19T14:04:06;1.70;;;1.05;;
19645;SDS011;9971;52.446;13.452;2023-09-19T14:09:09;1.80;;;1.17;;
19645;SDS011;9971;52.446;13.452;2023-09-19T14:14:11;3.22;;;1.35;;
19645;SDS011;9971;52.446;13.452;2023-09-19T14:19:13;3.17;;;1.60;;
19645;SDS011;9971;52.446;13.452;2023-09-19T14:24:17;1.60;;;1.40;;
19645;SDS011;9971;52.446;13.452;2023-09-19T14:29:18;4.37;;;1.43;;
19645;SDS011;9971;52.446;13.452;2023-09-19T14:34:21;2.47;;;1.42;;
19645;SDS011;9971;52.446;13.452;2023-09-19T14:39:23;1.30;;;1.12;;
19645;SDS011;9971;52.446;13.452;2023-09-19T14:44:26;2.37;;;1.82;;
19645;SDS011;9971;52.446;13.452;2023-09-19T14:49:28;2.10;;;1.40;;
19645;SDS011;9971;52.446;13.452;2023-09-19T14:54:31;3.08;;;1.50;;
19645;SDS011;9971;52.446;13.452;2023-09-19T14:59:33;2.80;;;1.57;;
19645;SDS011;9971;52.446;13.452;2023-09-19T15:04:38;2.63;;;1.63;;
19645;SDS011;9971;52.446;13.452;2023-09-19T15:09:41;1.52;;;1.42;;
19645;SDS011;9971;52.446;13.452;2023-09-19T15:14:43;2.30;;;1.47;;
19645;SDS011;9971;52.446;13.452;2023-09-19T15:19:45;1.87;;;1.30;;
19645;SDS011;9971;52.446;13.452;2023-09-19T15:24:47;1.55;;;1.45;;
19645;SDS011;9971;52.446;13.452;2023-09-19T15:29:50;1.67;;;1.10;;
19645;SDS011;9971;52.446;13.452;2023-09-19T15:34:52;2.42;;;1.62;;
19645;SDS011;9971;52.446;13.452;2023-09-19T15:39:54;2.30;;;1.52;;
19645;SDS011;9971;52.446;13.452;2023-09-19T15:44:57;2.95;;;1.27;;
19645;SDS011;9971;52.446;13.452;2023-09-19T15:49:59;2.27;;;1.72;;
19645;SDS011;9971;52.446;13.452;2023-09-19T15:55:02;1.98;;;1.60;;
19645;SDS011;9971;52.446;13.452;2023-09-19T16:00:05;1.77;;;1.60;;
19645;SDS011;9971;52.446;13.452;2023-09-19T16:05:07;1.85;;;1.70;;
19645;SDS011;9971;52.446;13.452;2023-09-19T16:10:10;2.17;;;1.17;;
19645;SDS011;9971;52.446;13.452;2023-09-19T16:15:12;3.33;;;1.75;;
19645;SDS011;9971;52.446;13.452;2023-09-19T16:20:14;2.75;;;1.90;;
19645;SDS011;9971;52.446;13.452;2023-09-19T16:25:17;3.20;;;2.00;;
19645;SDS011;9971;52.446;13.452;2023-09-19T16:30:19;2.70;;;1.90;;
19645;SDS011;9971;52.446;13.452;2023-09-19T16:35:22;2.17;;;1.80;;
19645;SDS011;9971;52.446;13.452;2023-09-19T16:40:24;4.45;;;1.82;;
19645;SDS011;9971;52.446;13.452;2023-09-19T16:45:27;2.83;;;1.95;;
19645;SDS011;9971;52.446;13.452;2023-09-19T16:50:29;2.90;;;2.00;;
19645;SDS011;9971;52.446;13.452;2023-09-19T16:55:33;1.87;;;1.70;;
19645;SDS011;9971;52.446;13.452;2023-09-19T17:00:34;4.30;;;2.10;;
19645;SDS011;9971;52.446;13.452;2023-09-19T17:05:35;2.07;;;1.23;;
19645;SDS011;9971;52.446;13.452;2023-09-19T17:10:37;2.75;;;1.80;;
19645;SDS011;9971;52.446;13.452;2023-09-19T17:15:39;1.40;;;1.00;;
19645;SDS011;9971;52.446;13.452;2023-09-19T17:20:42;1.33;;;1.10;;
19645;SDS011;9971;52.446;13.452;2023-09-19T17:25:44;0.20;;;0.20;;
19645;SDS011;9971;52.446;13.452;2023-09-19T17:30:47;0.10;;;0.10;;
19645;SDS011;9971;52.446;13.452;2023-09-19T17:35:49;0.93;;;0.78;;
19645;SDS011;9971;52.446;13.452;2023-09-19T17:40:51;0.10;;;0.10;;
19645;SDS011;9971;52.446;13.452;2023-09-19T17:45:54;0.70;;;0.70;;
19645;SDS011;9971;52.446;13.452;2023-09-19T17:51:00;1.27;;;1.15;;
19645;SDS011;9971;52.446;13.452;2023-09-19T17:56:03;2.40;;;1.87;;
19645;SDS011;9971;52.446;13.452;2023-09-19T18:01:09;1.13;;;1.07;;
19645;SDS011;9971;52.446;13.452;2023-09-19T18:06:12;0.60;;;0.50;;
19645;SDS011;9971;52.446;13.452;2023-09-19T18:11:14;1.63;;;1.10;;
19645;SDS011;9971;52.446;13.452;2023-09-19T18:16:15;0.30;;;0.30;;
19645;SDS011;9971;52.446;13.452;2023-09-19T18:21:17;0.15;;;0.15;;
19645;SDS011;9971;52.446;13.452;2023-09-19T18:26:19;0.40;;;0.20;;
19645;SDS011;9971;52.446;13.452;2023-09-19T18:31:21;0.30;;;0.10;;
19645;SDS011;9971;52.446;13.452;2023-09-19T18:36:23;0.20;;;0.20;;
19645;SDS011;9971;52.446;13.452;2023-09-19T18:41:25;0.40;;;0.20;;
19645;SDS011;9971;52.446;13.452;2023-09-19T18:46:28;0.07;;;0.07;;
19645;SDS011;9971;52.446;13.452;2023-09-19T18:51:31;0.37;;;0.33;;
19645;SDS011;9971;52.446;13.452;2023-09-19T18:56:33;0.40;;;0.40;;
19645;SDS011;9971;52.446;13.452;2023-09-19T19:01:36;0.47;;;0.30;;
19645;SDS011;9971;52.446;13.452;2023-09-19T19:06:38;1.72;;;1.25;;
19645;SDS011;9971;52.446;13.452;2023-09-19T19:11:41;2.37;;;1.70;;
19645;SDS011;9971;52.446;13.452;2023-09-19T19:16:43;2.00;;;1.40;;
19645;SDS011;9971;52.446;13.452;2023-09-19T19:21:45;0.98;;;0.90;;
19645;SDS011;9971;52.446;13.452;2023-09-19T19:26:47;1.60;;;1.50;;
19645;SDS011;9971;52.446;13.452;2023-09-19T19:31:50;1.50;;;1.40;;
19645;SDS011;9971;52.446;13.452;2023-09-19T19:36:52;1.70;;;1.45;;
19645;SDS011;9971;52.446;13.452;2023-09-19T19:41:55;2.43;;;1.70;;
19645;SDS011;9971;52.446;13.452;2023-09-19T19:46:57;1.62;;;1.42;;
19645;SDS011;9971;52.446;13.452;2023-09-19T19:52:00;3.15;;;1.90;;
19645;SDS011;9971;52.446;13.452;2023-09-19T19:57:02;3.02;;;1.65;;
19645;SDS011;9971;52.446;13.452;2023-09-19T20:02:05;2.10;;;1.57;;
19645;SDS011;9971;52.446;13.452;2023-09-19T20:07:07;2.33;;;1.80;;
19645;SDS011;9971;52.446;13.452;2023-09-19T20:12:10;2.15;;;1.50;;
19645;SDS011;9971;52.446;13.452;2023-09-19T20:17:12;2.67;;;1.70;;
19645;SDS011;9971;52.446;13.452;2023-09-19T20:22:14;1.95;;;1.47;;
19645;SDS011;9971;52.446;13.452;2023-09-19T20:27:17;2.20;;;1.60;;
19645;SDS011;9971;52.446;13.452;2023-09-19T20:32:19;3.37;;;1.90;;
19645;SDS011;9971;52.446;13.452;2023-09-19T20:37:22;0.70;;;0.70;;
19645;SDS011;9971;52.446;13.452;2023-09-19T20:42:25;0.45;;;0.45;;
19645;SDS011;9971;52.446;13.452;2023-09-19T20:47:27;1.10;;;1.00;;
19645;SDS011;9971;52.446;13.452;2023-09-19T20:52:31;0.65;;;0.50;;
19645;SDS011;9971;52.446;13.452;2023-09-19T20:57:32;0.40;;;0.40;;
19645;SDS011;9971;52.446;13.452;2023-09-19T21:02:35;1.57;;;1.07;;
19645;SDS011;9971;52.446;13.452;2023-09-19T21:07:36;1.53;;;1.20;;
19645;SDS011;9971;52.446;13.452;2023-09-19T21:12:38;0.47;;;0.37;;
19645;SDS011;9971;52.446;13.452;2023-09-19T21:17:41;0.03;;;0.03;;
19645;SDS011;9971;52.446;13.452;2023-09-19T21:22:43;0.20;;;0.20;;
19645;SDS011;9971;52.446;13.452;2023-09-19T21:27:46;0.00;;;0.00;;
19645;SDS011;9971;52.446;13.452;2023-09-19T21:32:48;0.15;;;0.15;;
19645;SDS011;9971;52.446;13.452;2023-09-19T21:37:51;0.00;;;0.00;;
19645;SDS011;9971;52.446;13.452;2023-09-19T21:42:54;0.10;;;0.10;;
19645;SDS011;9971;52.446;13.452;2023-09-19T21:47:56;0.10;;;0.10;;
19645;SDS011;9971;52.446;13.452;2023-09-19T21:52:59;0.00;;;0.00;;
19645;SDS011;9971;52.446;13.452;2023-09-19T21:58:02;0.10;;;0.10;;
19645;SDS011;9971;52.446;13.452;2023-09-19T22:03:05;0.17;;;0.17;;
19645;SDS011;9971;52.446;13.452;2023-09-19T22:08:08;0.10;;;0.10;;
19645;SDS011;9971;52.446;13.452;2023-09-19T22:13:10;0.13;;;0.13;;
19645;SDS011;9971;52.446;13.452;2023-09-19T22:18:13;0.30;;;0.30;;
19645;SDS011;9971;52.446;13.452;2023-09-19T22:23:16;0.20;;;0.20;;
19645;SDS011;9971;52.446;13.452;2023-09-19T22:28:19;0.10;;;0.10;;
19645;SDS011;9971;52.446;13.452;2023-09-19T22:33:24;0.10;;;0.10;;
19645;SDS011;9971;52.446;13.452;2023-09-19T22:38:26;0.10;;;0.10;;
19645;SDS011;9971;52.446;13.452;2023-09-19T22:43:30;0.10;;;0.10;;
19645;SDS011;9971;52.446;13.452;2023-09-19T22:48:33;0.10;;;0.10;;
19645;SDS011;9971;52.446;13.452;2023-09-19T22:53:36;0.35;;;0.15;;
19645;SDS011;9971;52.446;13.452;2023-09-19T22:58:46;0.20;;;0.20;;
19645;SDS011;9971;52.446;13.452;2023-09-19T23:03:48;0.13;;;0.13;;
19645;SDS011;9971;52.446;13.452;2023-09-19T23:08:52;0.10;;;0.10;;
19645;SDS011;9971;52.446;13.452;2023-09-19T23:13:55;0.20;;;0.20;;
19645;SDS011;9971;52.446;13.452;2023-09-19T23:18:57;0.13;;;0.13;;
19645;SDS011;9971;52.446;13.452;2023-09-19T23:24:00;0.10;;;0.10;;
19645;SDS011;9971;52.446;13.452;2023-09-19T23:29:03;0.00;;;0.00;;
19645;SDS011;9971;52.446;13.452;2023-09-19T23:34:05;0.13;;;0.13;;
19645;SDS011;9971;52.446;13.452;2023-09-19T23:39:07;0.10;;;0.10;;
19645;SDS011;9971;52.446;13.452;2023-09-19T23:44:09;0.17;;;0.17;;
19645;SDS011;9971;52.446;13.452;2023-09-19T23:49:12;0.13;;;0.13;;
19645;SDS011;9971;52.446;13.452;2023-09-19T23:54:14;0.20;;;0.20;;
19645;SDS011;9971;52.446;13.452;2023-09-19T23:59:22;0.07;;;0.07;;
